createdAt,value
2019-05-02T00:01:57.764Z,12.60
2019-05-02T00:04:26.344Z,13.13
2019-05-02T00:07:14.355Z,16.80
2019-05-02T00:09:47.130Z,15.83
2019-05-02T00:12:13.363Z,14.90
2019-05-02T00:14:42.122Z,14.17
2019-05-02T00:17:10.682Z,14.30
2019-05-02T00:19:39.165Z,13.17
2019-05-02T00:22:12.189Z,15.53
2019-05-02T00:24:39.353Z,15.57
2019-05-02T00:27:08.814Z,15.60
2019-05-02T00:29:37.420Z,13.40
2019-05-02T00:32:06.294Z,13.50
2019-05-02T00:34:34.777Z,16.47
2019-05-02T00:37:03.975Z,15.50
2019-05-02T00:39:32.423Z,15.40
2019-05-02T00:42:12.058Z,16.80
2019-05-02T00:44:31.273Z,15.40
2019-05-02T00:47:01.362Z,14.00
2019-05-02T00:49:30.805Z,15.20
2019-05-02T00:52:01.353Z,12.73
2019-05-02T00:54:29.713Z,16.03
2019-05-02T00:56:58.162Z,15.30
2019-05-02T00:59:26.783Z,12.90
2019-05-02T01:02:00.092Z,14.27
2019-05-02T01:04:31.729Z,12.17
2019-05-02T01:07:00.321Z,15.03
2019-05-02T01:09:29.052Z,16.27
2019-05-02T01:11:57.598Z,15.00
2019-05-02T01:14:27.138Z,14.87
2019-05-02T01:16:56.409Z,16.30
2019-05-02T01:19:24.892Z,16.40
2019-05-02T01:21:53.478Z,15.30
2019-05-02T01:24:21.960Z,13.93
2019-05-02T01:26:55.056Z,16.20
2019-05-02T01:29:29.846Z,16.90
2019-05-02T01:31:59.834Z,15.33
2019-05-02T01:34:32.688Z,15.87
2019-05-02T01:37:21.128Z,17.17
2019-05-02T01:39:49.526Z,13.33
2019-05-02T01:42:18.007Z,14.93
2019-05-02T01:44:46.593Z,12.67
2019-05-02T01:47:15.079Z,17.20
2019-05-02T01:49:43.560Z,16.93
2019-05-02T01:52:12.151Z,14.07
2019-05-02T01:54:45.404Z,17.87
2019-05-02T01:57:10.861Z,16.00
2019-05-02T01:59:39.441Z,18.13
2019-05-02T02:02:08.027Z,15.73
2019-05-02T02:04:36.511Z,14.90
2019-05-02T02:07:05.408Z,14.47
2019-05-02T02:09:33.867Z,17.60
2019-05-02T02:12:05.009Z,15.30
2019-05-02T02:14:32.598Z,11.83
2019-05-02T02:17:01.084Z,17.00
2019-05-02T02:19:39.126Z,11.03
2019-05-02T02:22:11.771Z,15.60
2019-05-02T02:24:51.208Z,13.13
2019-05-02T02:27:24.244Z,14.97
2019-05-02T02:29:49.970Z,15.47
2019-05-02T02:32:20.168Z,15.33
2019-05-02T02:34:48.833Z,15.87
2019-05-02T02:37:17.321Z,15.50
2019-05-02T02:39:48.361Z,12.90
2019-05-02T02:42:16.128Z,15.97
2019-05-02T02:44:49.016Z,17.33
2019-05-02T02:47:18.874Z,14.70
2019-05-02T02:49:47.724Z,17.50
2019-05-02T02:52:16.213Z,14.43
2019-05-02T02:54:44.970Z,17.10
2019-05-02T02:57:23.750Z,12.50
2019-05-02T02:59:44.017Z,12.87
2019-05-02T03:02:12.604Z,14.70
2019-05-02T03:04:43.973Z,15.33
2019-05-02T03:07:11.515Z,12.63
2019-05-02T03:09:39.996Z,18.83
2019-05-02T03:12:22.197Z,17.40
2019-05-02T03:14:55.399Z,16.80
2019-05-02T03:17:26.538Z,17.07
2019-05-02T03:20:00.398Z,16.67
2019-05-02T03:22:24.327Z,16.73
2019-05-02T03:24:52.815Z,18.60
2019-05-02T03:27:21.408Z,17.70
2019-05-02T03:29:49.987Z,16.17
2019-05-02T03:32:32.147Z,13.13
2019-05-02T03:34:53.327Z,13.37
2019-05-02T03:37:19.021Z,16.50
2019-05-02T03:39:49.412Z,14.10
2019-05-02T03:42:17.840Z,17.17
2019-05-02T03:44:54.619Z,16.47
2019-05-02T03:47:16.540Z,15.77
2019-05-02T03:49:48.928Z,16.23
2019-05-02T03:52:15.349Z,14.93
2019-05-02T03:54:50.625Z,18.80
2019-05-02T03:57:14.157Z,16.33
2019-05-02T03:59:42.647Z,16.60
2019-05-02T04:02:14.069Z,14.73
2019-05-02T04:04:41.457Z,18.07
2019-05-02T04:07:09.938Z,14.90
2019-05-02T04:09:39.766Z,14.77
2019-05-02T04:12:18.961Z,13.87
2019-05-02T04:14:39.601Z,13.37
2019-05-02T04:17:09.521Z,13.33
2019-05-02T04:19:38.411Z,16.17
2019-05-02T04:22:08.436Z,15.07
2019-05-02T04:24:37.057Z,11.80
2019-05-02T04:27:05.694Z,15.00
2019-05-02T04:29:34.178Z,13.57
2019-05-02T04:32:04.316Z,15.37
2019-05-02T04:34:32.989Z,11.87
2019-05-02T04:37:04.014Z,12.07
2019-05-02T04:39:31.679Z,14.97
2019-05-02T04:42:05.231Z,15.83
2019-05-02T04:44:43.669Z,13.47
2019-05-02T04:47:11.136Z,12.40
2019-05-02T04:49:35.655Z,14.67
2019-05-02T04:52:07.110Z,14.20
2019-05-02T04:54:32.577Z,12.20
2019-05-02T04:57:02.842Z,11.37
2019-05-02T04:59:33.229Z,13.23
2019-05-02T05:02:01.720Z,12.70
2019-05-02T05:04:33.078Z,13.40
2019-05-02T05:07:01.090Z,16.77
2019-05-02T05:09:30.007Z,17.87
2019-05-02T05:12:02.374Z,16.87
2019-05-02T05:14:31.460Z,13.70
2019-05-02T05:16:59.026Z,15.67
2019-05-02T05:19:31.133Z,15.90
2019-05-02T05:22:04.530Z,12.83
2019-05-02T05:24:32.818Z,19.30
2019-05-02T05:27:00.103Z,8.23
2019-05-02T05:29:29.104Z,15.30
2019-05-02T05:32:05.120Z,17.10
2019-05-02T05:34:32.443Z,16.07
2019-05-02T05:36:58.448Z,14.60
2019-05-02T05:39:28.195Z,3.47
2019-05-02T05:41:57.832Z,13.80
2019-05-02T05:44:28.659Z,16.80
2019-05-02T05:46:58.118Z,15.00
2019-05-02T05:49:28.261Z,13.50
2019-05-02T05:52:02.572Z,10.07
2019-05-02T05:54:28.288Z,15.07
2019-05-02T05:56:57.457Z,11.43
2019-05-02T05:59:30.380Z,16.83
2019-05-02T06:01:57.993Z,14.07
2019-05-02T06:04:31.126Z,14.83
2019-05-02T06:06:59.498Z,14.07
2019-05-02T06:09:31.297Z,16.00
2019-05-02T06:11:57.432Z,15.40
2019-05-02T06:14:26.324Z,14.20
2019-05-02T06:16:55.093Z,15.97
2019-05-02T06:19:23.781Z,12.77
2019-05-02T06:21:52.264Z,14.80
2019-05-02T06:24:20.754Z,14.10
2019-05-02T06:26:51.573Z,9.90
2019-05-02T06:29:20.948Z,10.33
2019-05-02T06:31:49.683Z,14.27
2019-05-02T06:34:18.271Z,13.70
2019-05-02T06:36:46.756Z,11.27
2019-05-02T06:39:15.453Z,16.27
2019-05-02T06:41:44.134Z,16.33
2019-05-02T06:44:12.858Z,13.77
2019-05-02T06:46:41.420Z,11.57
2019-05-02T06:49:09.994Z,13.73
2019-05-02T06:51:38.476Z,14.00
2019-05-02T06:54:06.957Z,17.30
2019-05-02T06:56:35.549Z,10.87
2019-05-02T06:59:04.131Z,12.97
2019-05-02T07:01:33.021Z,13.57
2019-05-02T07:04:04.242Z,12.13
2019-05-02T07:06:42.462Z,9.90
2019-05-02T07:09:02.485Z,14.17
2019-05-02T07:11:33.096Z,6.40
2019-05-02T07:14:12.414Z,14.43
2019-05-02T07:16:38.598Z,6.63
2019-05-02T07:19:21.782Z,14.33
2019-05-02T07:21:47.826Z,15.60
2019-05-02T07:24:16.310Z,14.67
2019-05-02T07:26:44.999Z,14.77
2019-05-02T07:29:16.995Z,13.43
2019-05-02T07:31:47.698Z,15.53
2019-05-02T07:34:14.248Z,14.23
2019-05-02T07:36:42.723Z,14.67
2019-05-02T07:39:11.517Z,13.30
2019-05-02T07:41:40.205Z,15.00
2019-05-02T07:44:08.688Z,15.63
2019-05-02T07:46:37.171Z,13.07
2019-05-02T07:49:06.276Z,13.13
2019-05-02T07:51:35.076Z,16.60
2019-05-02T07:54:03.522Z,16.23
2019-05-02T07:56:32.128Z,16.13
2019-05-02T07:59:00.613Z,15.53
2019-05-02T08:01:29.078Z,14.93
2019-05-02T08:03:57.613Z,15.37
2019-05-02T08:06:34.998Z,11.73
2019-05-02T08:08:56.392Z,12.27
2019-05-02T08:11:24.971Z,15.60
2019-05-02T08:13:55.690Z,15.60
2019-05-02T08:16:27.351Z,16.00
2019-05-02T08:18:54.023Z,15.87
2019-05-02T08:21:22.508Z,15.87
2019-05-02T08:23:50.982Z,15.10
2019-05-02T08:26:21.575Z,16.20
2019-05-02T08:29:03.203Z,14.70
2019-05-02T08:31:31.794Z,13.70
2019-05-02T08:34:00.275Z,14.27
2019-05-02T08:36:28.761Z,15.17
2019-05-02T08:38:57.345Z,13.70
2019-05-02T08:41:25.808Z,15.47
2019-05-02T08:43:54.315Z,12.63
2019-05-02T08:46:23.001Z,13.57
2019-05-02T08:48:51.788Z,12.90
2019-05-02T08:51:20.276Z,11.17
2019-05-02T08:53:52.125Z,11.50
2019-05-02T08:56:21.409Z,12.73
2019-05-02T08:58:49.802Z,12.37
2019-05-02T09:01:18.618Z,11.00
2019-05-02T09:03:55.485Z,11.97
2019-05-02T09:06:22.196Z,11.67
2019-05-02T09:08:51.530Z,11.73
2019-05-02T09:11:19.512Z,10.33
2019-05-02T09:13:47.998Z,8.17
2019-05-02T09:16:23.654Z,10.57
2019-05-02T09:18:51.959Z,11.37
2019-05-02T09:21:17.338Z,11.47
2019-05-02T09:23:45.923Z,11.47
2019-05-02T09:26:14.411Z,11.53
2019-05-02T09:28:42.992Z,11.87
2019-05-02T09:31:13.218Z,10.53
2019-05-02T09:33:46.653Z,11.70
2019-05-02T09:36:12.023Z,11.80
2019-05-02T09:38:42.458Z,8.40
2019-05-02T09:41:16.961Z,12.50
2019-05-02T09:43:42.640Z,9.70
2019-05-02T09:46:15.393Z,10.60
2019-05-02T09:48:42.700Z,13.10
2019-05-02T09:51:16.997Z,11.43
2019-05-02T09:53:43.182Z,11.23
2019-05-02T09:56:12.696Z,9.70
2019-05-02T09:58:42.013Z,11.90
2019-05-02T10:01:23.606Z,10.73
2019-05-02T10:03:52.178Z,10.60
2019-05-02T10:06:22.815Z,11.30
2019-05-02T10:08:52.029Z,10.00
2019-05-02T10:11:22.479Z,9.90
2019-05-02T10:13:51.907Z,10.23
2019-05-02T10:16:23.532Z,9.43
2019-05-02T10:18:52.323Z,9.77
2019-05-02T10:21:22.824Z,9.07
2019-05-02T10:23:59.033Z,9.93
2019-05-02T10:26:24.529Z,9.80
2019-05-02T10:28:53.395Z,11.43
2019-05-02T10:31:22.192Z,12.03
2019-05-02T10:33:52.761Z,11.67
2019-05-02T10:36:23.682Z,10.77
2019-05-02T10:38:54.796Z,11.60
2019-05-02T10:41:22.408Z,10.73
2019-05-02T10:43:55.333Z,11.40
2019-05-02T10:46:23.107Z,9.90
2019-05-02T10:48:53.362Z,10.97
2019-05-02T10:51:26.406Z,10.20
2019-05-02T10:53:56.579Z,9.43
2019-05-02T10:56:25.363Z,12.27
2019-05-02T10:58:53.842Z,9.63
2019-05-02T11:01:23.865Z,11.40
2019-05-02T11:03:53.992Z,10.90
2019-05-02T11:06:22.481Z,10.43
2019-05-02T11:08:52.388Z,10.57
2019-05-02T11:11:21.855Z,9.47
2019-05-02T11:14:05.687Z,9.70
2019-05-02T11:16:35.555Z,10.07
2019-05-02T11:19:05.679Z,10.30
2019-05-02T11:21:34.266Z,11.00
2019-05-02T11:24:02.844Z,9.40
2019-05-02T11:26:33.787Z,10.97
2019-05-02T11:29:03.071Z,10.30
2019-05-02T11:31:32.455Z,9.97
2019-05-02T11:34:01.795Z,8.57
2019-05-02T11:36:32.556Z,11.20
2019-05-02T11:39:10.675Z,11.40
2019-05-02T11:41:31.759Z,11.20
2019-05-02T11:44:00.490Z,8.87
2019-05-02T11:46:28.938Z,10.53
2019-05-02T11:48:58.665Z,8.97
2019-05-02T11:51:27.343Z,10.13
2019-05-02T11:53:59.224Z,7.70
2019-05-02T11:56:26.141Z,11.50
2019-05-02T11:58:54.836Z,8.47
2019-05-02T12:01:35.811Z,9.10
2019-05-02T12:03:53.536Z,11.13
2019-05-02T12:06:22.657Z,8.90
2019-05-02T12:08:52.528Z,9.47
2019-05-02T12:11:22.882Z,7.40
2019-05-02T12:13:56.600Z,10.23
2019-05-02T12:16:22.951Z,9.47
2019-05-02T12:18:53.715Z,9.10
2019-05-02T12:21:22.939Z,9.20
2019-05-02T12:23:52.610Z,10.90
2019-05-02T12:26:22.078Z,10.13
2019-05-02T12:28:52.676Z,9.00
2019-05-02T12:31:25.914Z,9.70
2019-05-02T12:33:54.722Z,7.53
2019-05-02T12:36:23.282Z,8.03
2019-05-02T12:38:52.782Z,10.00
2019-05-02T12:41:24.934Z,10.80
2019-05-02T12:43:52.482Z,6.27
2019-05-02T12:46:22.173Z,8.57
2019-05-02T12:48:52.007Z,8.57
2019-05-02T12:51:22.541Z,10.67
2019-05-02T12:53:52.848Z,9.47
2019-05-02T12:56:22.903Z,8.57
2019-05-02T12:58:52.925Z,10.57
2019-05-02T13:01:22.058Z,10.33
2019-05-02T13:04:02.744Z,7.70
2019-05-02T13:06:32.796Z,9.40
2019-05-02T13:09:03.092Z,12.50
2019-05-02T13:11:47.561Z,11.07
2019-05-02T13:14:19.711Z,11.67
2019-05-02T13:16:47.971Z,9.23
2019-05-02T13:19:16.864Z,9.60
2019-05-02T13:21:50.355Z,12.23
2019-05-02T13:24:29.189Z,10.37
2019-05-02T13:26:59.407Z,10.00
2019-05-02T13:29:24.777Z,10.53
2019-05-02T13:31:57.660Z,12.37
2019-05-02T13:34:34.085Z,9.70
2019-05-02T13:37:03.498Z,11.67
2019-05-02T13:39:39.656Z,10.77
2019-05-02T13:42:08.546Z,10.20
2019-05-02T13:44:47.693Z,10.60
2019-05-02T13:47:17.803Z,11.40
2019-05-02T13:49:53.887Z,10.80
2019-05-02T13:52:16.717Z,9.37
2019-05-02T13:54:45.215Z,9.33
2019-05-02T13:57:13.788Z,12.20
2019-05-02T13:59:42.373Z,12.90
2019-05-02T14:02:32.264Z,10.37
2019-05-02T14:05:02.294Z,8.00
2019-05-02T14:07:32.655Z,9.50
2019-05-02T14:10:02.957Z,7.70
2019-05-02T14:12:36.130Z,9.70
2019-05-02T14:15:06.154Z,9.53
2019-05-02T14:17:34.633Z,9.03
2019-05-02T14:20:10.319Z,9.90
2019-05-02T14:22:33.440Z,8.30
2019-05-02T14:25:02.256Z,5.30
2019-05-02T14:27:32.063Z,8.43
2019-05-02T14:30:02.482Z,6.77
2019-05-02T14:32:32.934Z,6.60
2019-05-02T14:35:24.133Z,8.43
2019-05-02T14:38:10.431Z,7.30
2019-05-02T14:40:59.186Z,8.00
2019-05-02T14:43:48.004Z,7.20
2019-05-02T14:46:17.975Z,8.20
2019-05-02T14:48:46.739Z,8.30
2019-05-02T14:51:16.596Z,7.90
2019-05-02T14:53:45.567Z,8.60
2019-05-02T14:56:27.670Z,9.83
2019-05-02T14:58:56.269Z,9.17
2019-05-02T15:01:26.224Z,6.73
2019-05-02T15:03:58.465Z,7.47
2019-05-02T15:06:25.599Z,7.03
2019-05-02T15:08:54.080Z,7.23
2019-05-02T15:11:30.318Z,7.23
2019-05-02T15:13:52.947Z,8.67
2019-05-02T15:16:26.174Z,8.43
2019-05-02T15:18:53.147Z,10.50
2019-05-02T15:21:22.814Z,7.67
2019-05-02T15:23:54.282Z,9.57
2019-05-02T15:26:26.231Z,8.77
2019-05-02T15:28:52.192Z,8.40
2019-05-02T15:31:31.588Z,9.00
2019-05-02T15:34:06.054Z,8.93
2019-05-02T15:36:37.007Z,7.70
2019-05-02T15:41:39.817Z,10.30
2019-05-02T15:44:08.492Z,8.17
2019-05-02T15:46:40.109Z,8.80
2019-05-02T15:49:08.019Z,8.57
2019-05-02T15:51:38.057Z,10.73
2019-05-02T15:54:12.503Z,9.20
2019-05-02T15:57:00.673Z,10.07
2019-05-02T15:59:44.477Z,9.37
2019-05-02T16:02:07.897Z,8.30
2019-05-02T16:04:38.036Z,8.53
2019-05-02T16:07:08.320Z,8.67
2019-05-02T16:09:36.848Z,10.50
2019-05-02T16:12:05.679Z,11.37
2019-05-02T16:14:35.977Z,12.70
2019-05-02T16:17:04.599Z,9.27
2019-05-02T16:19:34.780Z,10.90
2019-05-02T16:22:08.166Z,10.23
2019-05-02T16:24:36.866Z,9.53
2019-05-02T16:27:05.348Z,10.13
2019-05-02T16:29:33.826Z,10.07
2019-05-02T16:32:05.535Z,10.73
2019-05-02T16:34:35.813Z,10.00
2019-05-02T16:37:16.255Z,10.00
2019-05-02T16:39:49.278Z,11.20
2019-05-02T16:42:12.621Z,10.33
2019-05-02T16:44:43.146Z,9.83
2019-05-02T16:47:13.936Z,11.20
2019-05-02T16:49:42.016Z,9.20
2019-05-02T16:52:12.574Z,12.30
2019-05-02T16:54:41.671Z,11.67
2019-05-02T16:57:12.569Z,10.80
2019-05-02T16:59:42.554Z,10.60
2019-05-02T17:02:12.216Z,9.37
2019-05-02T17:04:42.526Z,12.10
2019-05-02T17:07:12.736Z,10.10
2019-05-02T17:09:45.516Z,10.37
2019-05-02T17:12:15.403Z,10.90
2019-05-02T17:14:51.611Z,9.50
2019-05-02T17:17:15.877Z,11.93
2019-05-02T17:19:44.833Z,11.10
2019-05-02T17:22:16.747Z,6.57
2019-05-02T17:24:43.675Z,9.37
2019-05-02T17:27:12.960Z,10.87
2019-05-02T17:29:43.302Z,8.80
2019-05-02T17:32:11.905Z,11.80
2019-05-02T17:34:42.175Z,11.60
2019-05-02T17:37:13.491Z,9.80
2019-05-02T17:39:42.652Z,10.97
2019-05-02T17:42:12.414Z,10.40
2019-05-02T17:44:41.659Z,9.30
2019-05-02T17:47:11.400Z,10.70
2019-05-02T17:49:39.987Z,10.80
2019-05-02T17:52:26.704Z,8.17
2019-05-02T17:54:52.959Z,10.97
2019-05-02T17:57:21.612Z,11.73
2019-05-02T17:59:51.908Z,9.47
2019-05-02T18:02:21.966Z,11.33
2019-05-02T18:04:52.146Z,11.37
2019-05-02T18:07:25.299Z,11.30
2019-05-02T18:09:52.463Z,11.70
2019-05-02T18:12:21.771Z,12.80
2019-05-02T18:14:53.131Z,8.87
2019-05-02T18:17:22.015Z,10.07
2019-05-02T18:19:52.088Z,10.77
2019-05-02T18:22:25.961Z,9.30
2019-05-02T18:24:52.686Z,9.87
2019-05-02T18:27:22.186Z,8.70
2019-05-02T18:29:52.494Z,9.57
2019-05-02T18:32:22.793Z,10.20
2019-05-02T18:34:51.951Z,9.23
2019-05-02T18:37:21.836Z,11.00
2019-05-02T18:39:53.928Z,8.23
2019-05-02T18:42:21.923Z,8.43
2019-05-02T18:44:53.025Z,8.60
2019-05-02T18:47:24.578Z,9.43
2019-05-02T18:49:55.251Z,7.90
2019-05-02T18:52:23.845Z,7.23
2019-05-02T18:54:51.972Z,6.50
2019-05-02T18:57:24.482Z,8.47
2019-05-02T18:59:52.006Z,9.50
2019-05-02T19:02:21.552Z,10.20
2019-05-02T19:04:51.659Z,9.00
2019-05-02T19:07:30.891Z,8.90
2019-05-02T19:09:51.889Z,11.37
2019-05-02T19:12:23.997Z,11.53
2019-05-02T19:14:52.795Z,12.97
2019-05-02T19:17:21.942Z,12.60
2019-05-02T19:19:52.594Z,12.60
2019-05-02T19:22:22.446Z,11.77
2019-05-02T19:24:52.377Z,13.30
2019-05-02T19:27:34.625Z,13.87
2019-05-02T19:30:03.618Z,13.50
2019-05-02T19:32:32.119Z,12.87
2019-05-02T19:35:03.291Z,14.00
2019-05-02T19:37:31.643Z,12.50
2019-05-02T19:40:00.173Z,13.53
2019-05-02T19:42:28.808Z,14.53
2019-05-02T19:45:03.808Z,14.07
2019-05-02T19:47:27.511Z,13.67
2019-05-02T19:49:56.042Z,11.83
2019-05-02T19:52:28.136Z,12.23
2019-05-02T19:54:54.816Z,13.23
2019-05-02T19:57:26.337Z,11.70
2019-05-02T19:59:57.140Z,13.83
2019-05-02T20:02:23.843Z,10.87
2019-05-02T20:04:52.521Z,12.80
2019-05-02T20:07:21.706Z,10.93
2019-05-02T20:09:52.345Z,12.70
2019-05-02T20:12:21.993Z,9.40
2019-05-02T20:14:50.655Z,12.50
2019-05-02T20:17:19.958Z,11.20
2019-05-02T20:19:52.767Z,11.73
2019-05-02T20:22:22.383Z,11.07
2019-05-02T20:24:59.909Z,13.20
2019-05-02T20:27:27.944Z,12.03
2019-05-02T20:29:55.581Z,11.13
2019-05-02T20:32:24.185Z,14.07
2019-05-02T20:34:52.765Z,10.50
2019-05-02T20:37:22.114Z,11.20
2019-05-02T20:39:50.763Z,10.70
2019-05-02T20:42:19.440Z,9.97
2019-05-02T20:44:48.034Z,9.33
2019-05-02T20:47:21.750Z,10.47
2019-05-02T20:49:51.817Z,7.03
2019-05-02T20:52:21.760Z,7.07
2019-05-02T20:54:52.188Z,7.70
2019-05-02T20:57:20.691Z,6.93
2019-05-02T20:59:49.166Z,9.10
2019-05-02T21:02:17.663Z,8.40
2019-05-02T21:04:46.355Z,7.50
2019-05-02T21:07:22.511Z,6.60
2019-05-02T21:09:58.743Z,6.00
2019-05-02T21:12:27.251Z,5.40
2019-05-02T21:14:55.768Z,5.47
2019-05-02T21:17:25.450Z,3.80
2019-05-02T21:19:53.943Z,5.63
2019-05-02T21:22:24.791Z,6.23
2019-05-02T21:24:53.367Z,5.00
2019-05-02T21:27:21.936Z,4.90
2019-05-02T21:29:52.256Z,5.50
2019-05-02T21:37:54.075Z,4.30
2019-05-02T21:40:25.554Z,6.13
2019-05-02T21:42:52.791Z,6.03
2019-05-02T21:45:22.246Z,5.57
2019-05-02T21:47:52.652Z,4.67
2019-05-02T21:50:22.965Z,5.27
2019-05-02T21:52:55.944Z,4.83
2019-05-02T21:55:26.075Z,5.77
2019-05-02T21:57:54.552Z,4.17
2019-05-02T22:00:37.675Z,5.23
2019-05-02T22:03:06.261Z,5.33
2019-05-02T22:05:34.703Z,5.07
2019-05-02T22:08:03.281Z,6.60
2019-05-02T22:10:32.163Z,5.13
2019-05-02T22:13:02.123Z,6.60
2019-05-02T22:15:32.450Z,6.47
2019-05-02T22:18:01.721Z,5.90
2019-05-02T22:20:32.088Z,6.50
2019-05-02T22:23:02.322Z,5.90
2019-05-02T22:25:32.724Z,5.90
2019-05-02T22:28:02.014Z,6.00
2019-05-02T22:30:32.313Z,5.10
2019-05-02T22:33:02.788Z,4.90
2019-05-02T22:35:31.193Z,7.37
2019-05-02T22:38:13.707Z,5.90
2019-05-02T22:40:44.137Z,6.47
2019-05-02T22:43:13.080Z,6.47
2019-05-02T22:45:41.838Z,6.40
2019-05-02T22:48:11.920Z,6.60
2019-05-02T22:50:41.848Z,7.80
2019-05-02T22:53:12.031Z,5.17
2019-05-02T22:55:42.449Z,7.47
2019-05-02T22:58:11.101Z,7.63
2019-05-02T23:00:41.542Z,6.17
2019-05-02T23:03:09.914Z,8.53
2019-05-02T23:05:38.399Z,8.97
2019-05-02T23:08:07.086Z,7.20
2019-05-02T23:10:35.570Z,7.30
2019-05-02T23:13:04.052Z,9.83
2019-05-02T23:15:32.566Z,8.80
2019-05-02T23:18:01.663Z,7.20
2019-05-02T23:20:30.251Z,9.40
2019-05-02T23:22:58.805Z,8.80
2019-05-02T23:25:45.419Z,7.77
2019-05-02T23:28:15.567Z,8.50
2019-05-02T23:30:44.123Z,9.03
2019-05-02T23:33:13.045Z,11.47
2019-05-02T23:35:42.986Z,9.07
2019-05-02T23:38:12.567Z,7.93
2019-05-02T23:40:42.073Z,8.50
2019-05-02T23:43:12.488Z,8.83
2019-05-02T23:45:42.263Z,11.10
2019-05-02T23:48:12.564Z,10.90
2019-05-02T23:50:41.213Z,10.20
2019-05-02T23:53:09.693Z,9.67
2019-05-02T23:55:38.179Z,9.17
2019-05-02T23:58:06.867Z,9.30
